sensor_id;sensor_type;location;lat;lon;timestamp;temperature;humidity
7030;DHT22;3556;53.500;10.176;2023-05-24T01:53:45;10.00;99.90
7030;DHT22;3556;53.500;10.176;2023-05-24T01:56:12;10.10;99.90
7030;DHT22;3556;53.500;10.176;2023-05-24T01:58:40;10.10;99.90
7030;DHT22;3556;53.500;10.176;2023-05-24T02:01:07;10.10;99.90
7030;DHT22;3556;53.500;10.176;2023-05-24T02:03:33;10.10;99.90
7030;DHT22;3556;53.500;10.176;2023-05-24T02:05:58;10.10;99.90
7030;DHT22;3556;53.500;10.176;2023-05-24T02:08:24;10.10;99.90
7030;DHT22;3556;53.500;10.176;2023-05-24T02:10:50;10.10;99.90
7030;DHT22;3556;53.500;10.176;2023-05-24T02:13:15;10.20;99.90
7030;DHT22;3556;53.500;10.176;2023-05-24T02:15:42;10.10;99.90
7030;DHT22;3556;53.500;10.176;2023-05-24T02:18:09;10.10;99.90
7030;DHT22;3556;53.500;10.176;2023-05-24T02:20:35;10.10;99.90
7030;DHT22;3556;53.500;10.176;2023-05-24T02:23:02;10.20;99.90
7030;DHT22;3556;53.500;10.176;2023-05-24T02:25:29;10.20;99.90
7030;DHT22;3556;53.500;10.176;2023-05-24T02:27:56;10.20;99.90
7030;DHT22;3556;53.500;10.176;2023-05-24T02:30:22;10.10;99.90
7030;DHT22;3556;53.500;10.176;2023-05-24T02:32:47;10.20;99.90
7030;DHT22;3556;53.500;10.176;2023-05-24T02:35:13;10.20;99.90
7030;DHT22;3556;53.500;10.176;2023-05-24T02:37:39;10.20;99.90
7030;DHT22;3556;53.500;10.176;2023-05-24T02:40:05;10.20;99.90
7030;DHT22;3556;53.500;10.176;2023-05-24T02:42:31;10.20;99.90
7030;DHT22;3556;53.500;10.176;2023-05-24T02:44:57;10.20;99.90
7030;DHT22;3556;53.500;10.176;2023-05-24T02:47:22;10.20;99.90
7030;DHT22;3556;53.500;10.176;2023-05-24T02:49:48;10.20;99.90
7030;DHT22;3556;53.500;10.176;2023-05-24T02:52:13;10.20;99.90
7030;DHT22;3556;53.500;10.176;2023-05-24T02:54:40;10.20;99.90
7030;DHT22;3556;53.500;10.176;2023-05-24T02:57:05;10.20;99.90
7030;DHT22;3556;53.500;10.176;2023-05-24T02:59:31;10.20;99.90
7030;DHT22;3556;53.500;10.176;2023-05-24T03:01:58;10.20;99.90
7030;DHT22;3556;53.500;10.176;2023-05-24T03:04:23;10.20;99.90
7030;DHT22;3556;53.500;10.176;2023-05-24T03:06:49;10.20;99.90
7030;DHT22;3556;53.500;10.176;2023-05-24T03:09:15;10.20;99.90
7030;DHT22;3556;53.500;10.176;2023-05-24T03:11:41;10.20;99.90
7030;DHT22;3556;53.500;10.176;2023-05-24T03:14:07;10.20;99.90
7030;DHT22;3556;53.500;10.176;2023-05-24T03:16:35;10.20;99.90
7030;DHT22;3556;53.500;10.176;2023-05-24T03:19:01;10.20;99.90
7030;DHT22;3556;53.500;10.176;2023-05-24T03:21:27;10.20;99.90
7030;DHT22;3556;53.500;10.176;2023-05-24T03:23:52;10.20;99.90
7030;DHT22;3556;53.500;10.176;2023-05-24T03:26:18;10.20;99.90
7030;DHT22;3556;53.500;10.176;2023-05-24T03:28:45;10.20;99.90
7030;DHT22;3556;53.500;10.176;2023-05-24T03:31:12;10.20;99.90
7030;DHT22;3556;53.500;10.176;2023-05-24T03:33:37;10.20;99.90
7030;DHT22;3556;53.500;10.176;2023-05-24T03:36:04;10.20;99.90
7030;DHT22;3556;53.500;10.176;2023-05-24T03:38:31;10.20;99.90
7030;DHT22;3556;53.500;10.176;2023-05-24T03:40:58;10.20;99.90
7030;DHT22;3556;53.500;10.176;2023-05-24T03:43:24;10.20;99.90
7030;DHT22;3556;53.500;10.176;2023-05-24T03:45:49;10.20;99.90
7030;DHT22;3556;53.500;10.176;2023-05-24T03:48:15;10.20;99.90
7030;DHT22;3556;53.500;10.176;2023-05-24T03:50:41;10.20;99.90
7030;DHT22;3556;53.500;10.176;2023-05-24T03:53:07;10.20;99.90
7030;DHT22;3556;53.500;10.176;2023-05-24T03:55:32;10.30;99.90
7030;DHT22;3556;53.500;10.176;2023-05-24T03:57:58;10.30;99.90
7030;DHT22;3556;53.500;10.176;2023-05-24T04:00:24;10.30;99.90
7030;DHT22;3556;53.500;10.176;2023-05-24T04:02:50;10.30;99.90
7030;DHT22;3556;53.500;10.176;2023-05-24T04:05:15;10.30;99.90
7030;DHT22;3556;53.500;10.176;2023-05-24T04:07:41;10.30;99.90
7030;DHT22;3556;53.500;10.176;2023-05-24T04:10:08;10.30;99.90
7030;DHT22;3556;53.500;10.176;2023-05-24T04:12:34;10.30;99.90
7030;DHT22;3556;53.500;10.176;2023-05-24T04:15:00;10.20;99.90
7030;DHT22;3556;53.500;10.176;2023-05-24T04:17:29;10.20;99.90
7030;DHT22;3556;53.500;10.176;2023-05-24T04:19:59;10.20;99.90
7030;DHT22;3556;53.500;10.176;2023-05-24T04:22:24;10.20;99.90
7030;DHT22;3556;53.500;10.176;2023-05-24T04:24:50;10.20;99.90
7030;DHT22;3556;53.500;10.176;2023-05-24T04:27:16;10.20;99.90
7030;DHT22;3556;53.500;10.176;2023-05-24T04:29:43;10.30;99.90
7030;DHT22;3556;53.500;10.176;2023-05-24T04:32:10;10.20;99.90
7030;DHT22;3556;53.500;10.176;2023-05-24T04:34:39;10.30;99.90
7030;DHT22;3556;53.500;10.176;2023-05-24T04:37:07;10.30;99.90
7030;DHT22;3556;53.500;10.176;2023-05-24T04:39:32;10.30;99.90
7030;DHT22;3556;53.500;10.176;2023-05-24T04:41:58;10.30;99.90
7030;DHT22;3556;53.500;10.176;2023-05-24T04:44:25;10.30;99.90
7030;DHT22;3556;53.500;10.176;2023-05-24T04:46:51;10.30;99.90
7030;DHT22;3556;53.500;10.176;2023-05-24T04:49:17;10.30;99.90
7030;DHT22;3556;53.500;10.176;2023-05-24T04:51:44;10.30;99.90
7030;DHT22;3556;53.500;10.176;2023-05-24T04:54:10;10.20;99.90
7030;DHT22;3556;53.500;10.176;2023-05-24T04:56:37;10.20;99.90
7030;DHT22;3556;53.500;10.176;2023-05-24T04:59:09;10.20;99.90
7030;DHT22;3556;53.500;10.176;2023-05-24T05:01:35;10.20;99.90
7030;DHT22;3556;53.500;10.176;2023-05-24T05:04:01;10.20;99.90
7030;DHT22;3556;53.500;10.176;2023-05-24T05:06:28;10.20;99.90
7030;DHT22;3556;53.500;10.176;2023-05-24T05:08:54;10.20;99.90
7030;DHT22;3556;53.500;10.176;2023-05-24T05:11:19;10.20;99.90
7030;DHT22;3556;53.500;10.176;2023-05-24T05:13:45;10.20;99.90
7030;DHT22;3556;53.500;10.176;2023-05-24T05:16:11;10.20;99.90
7030;DHT22;3556;53.500;10.176;2023-05-24T05:18:37;10.20;99.90
7030;DHT22;3556;53.500;10.176;2023-05-24T05:21:02;10.30;99.90
7030;DHT22;3556;53.500;10.176;2023-05-24T05:23:29;10.20;99.90
7030;DHT22;3556;53.500;10.176;2023-05-24T05:25:55;10.20;99.90
7030;DHT22;3556;53.500;10.176;2023-05-24T05:28:20;10.20;99.90
7030;DHT22;3556;53.500;10.176;2023-05-24T05:30:46;10.30;99.90
7030;DHT22;3556;53.500;10.176;2023-05-24T05:33:11;10.20;99.90
7030;DHT22;3556;53.500;10.176;2023-05-24T05:35:37;10.30;99.90
7030;DHT22;3556;53.500;10.176;2023-05-24T05:38:03;10.30;99.90
7030;DHT22;3556;53.500;10.176;2023-05-24T05:40:28;10.30;99.90
7030;DHT22;3556;53.500;10.176;2023-05-24T05:42:54;10.30;99.90
7030;DHT22;3556;53.500;10.176;2023-05-24T05:45:20;10.30;99.90
7030;DHT22;3556;53.500;10.176;2023-05-24T05:47:45;10.30;99.90
7030;DHT22;3556;53.500;10.176;2023-05-24T05:50:11;10.30;99.90
7030;DHT22;3556;53.500;10.176;2023-05-24T05:52:37;10.30;99.90
7030;DHT22;3556;53.500;10.176;2023-05-24T05:55:02;10.40;99.90
7030;DHT22;3556;53.500;10.176;2023-05-24T05:57:28;10.40;99.90
7030;DHT22;3556;53.500;10.176;2023-05-24T05:59:54;10.40;99.90
7030;DHT22;3556;53.500;10.176;2023-05-24T06:02:19;10.40;99.90
7030;DHT22;3556;53.500;10.176;2023-05-24T06:04:50;10.50;99.90
7030;DHT22;3556;53.500;10.176;2023-05-24T06:07:15;10.50;99.90
7030;DHT22;3556;53.500;10.176;2023-05-24T06:09:41;10.50;99.90
7030;DHT22;3556;53.500;10.176;2023-05-24T06:12:07;10.50;99.90
7030;DHT22;3556;53.500;10.176;2023-05-24T06:14:32;10.50;99.90
7030;DHT22;3556;53.500;10.176;2023-05-24T06:16:58;10.50;99.90
7030;DHT22;3556;53.500;10.176;2023-05-24T06:19:24;10.60;99.90
7030;DHT22;3556;53.500;10.176;2023-05-24T06:21:51;10.60;99.90
7030;DHT22;3556;53.500;10.176;2023-05-24T06:24:17;10.70;99.90
7030;DHT22;3556;53.500;10.176;2023-05-24T06:26:46;10.70;99.90
7030;DHT22;3556;53.500;10.176;2023-05-24T06:29:12;10.70;99.90
7030;DHT22;3556;53.500;10.176;2023-05-24T06:31:38;10.70;99.90
7030;DHT22;3556;53.500;10.176;2023-05-24T06:34:04;10.70;99.90
7030;DHT22;3556;53.500;10.176;2023-05-24T06:36:30;10.80;99.90
7030;DHT22;3556;53.500;10.176;2023-05-24T06:39:00;10.80;99.90
7030;DHT22;3556;53.500;10.176;2023-05-24T06:41:26;10.90;99.90
7030;DHT22;3556;53.500;10.176;2023-05-24T06:43:52;10.90;99.90
7030;DHT22;3556;53.500;10.176;2023-05-24T06:46:18;10.90;99.90
7030;DHT22;3556;53.500;10.176;2023-05-24T06:48:43;11.00;99.90
7030;DHT22;3556;53.500;10.176;2023-05-24T06:51:09;11.00;99.90
7030;DHT22;3556;53.500;10.176;2023-05-24T06:53:35;11.00;99.90
7030;DHT22;3556;53.500;10.176;2023-05-24T06:56:00;11.10;99.90
7030;DHT22;3556;53.500;10.176;2023-05-24T06:58:26;11.10;99.90
7030;DHT22;3556;53.500;10.176;2023-05-24T07:00:51;11.10;99.90
7030;DHT22;3556;53.500;10.176;2023-05-24T07:03:17;11.10;99.90
7030;DHT22;3556;53.500;10.176;2023-05-24T07:05:43;11.20;99.90
7030;DHT22;3556;53.500;10.176;2023-05-24T07:08:08;11.20;99.90
7030;DHT22;3556;53.500;10.176;2023-05-24T07:10:34;11.30;99.90
7030;DHT22;3556;53.500;10.176;2023-05-24T07:12:59;11.30;99.90
7030;DHT22;3556;53.500;10.176;2023-05-24T07:15:26;11.40;99.90
7030;DHT22;3556;53.500;10.176;2023-05-24T07:17:51;11.50;99.90
7030;DHT22;3556;53.500;10.176;2023-05-24T07:20:17;11.60;99.90
7030;DHT22;3556;53.500;10.176;2023-05-24T07:22:43;11.80;99.90
7030;DHT22;3556;53.500;10.176;2023-05-24T07:25:09;11.90;99.90
7030;DHT22;3556;53.500;10.176;2023-05-24T07:27:34;12.10;99.90
7030;DHT22;3556;53.500;10.176;2023-05-24T07:30:01;12.30;99.90
7030;DHT22;3556;53.500;10.176;2023-05-24T07:32:27;12.50;99.90
7030;DHT22;3556;53.500;10.176;2023-05-24T07:34:53;12.70;99.90
7030;DHT22;3556;53.500;10.176;2023-05-24T07:37:19;12.80;99.90
7030;DHT22;3556;53.500;10.176;2023-05-24T07:39:48;12.90;99.90
7030;DHT22;3556;53.500;10.176;2023-05-24T07:42:14;13.00;99.90
7030;DHT22;3556;53.500;10.176;2023-05-24T07:44:40;13.20;99.90
7030;DHT22;3556;53.500;10.176;2023-05-24T07:47:06;13.30;99.90
7030;DHT22;3556;53.500;10.176;2023-05-24T07:49:32;13.40;99.90
7030;DHT22;3556;53.500;10.176;2023-05-24T07:51:57;13.40;99.90
7030;DHT22;3556;53.500;10.176;2023-05-24T07:54:24;13.40;99.90
7030;DHT22;3556;53.500;10.176;2023-05-24T07:56:51;13.40;99.90
7030;DHT22;3556;53.500;10.176;2023-05-24T07:59:16;13.40;99.90
7030;DHT22;3556;53.500;10.176;2023-05-24T08:01:43;13.40;99.90
7030;DHT22;3556;53.500;10.176;2023-05-24T08:04:09;13.20;99.90
7030;DHT22;3556;53.500;10.176;2023-05-24T08:06:35;13.20;99.90
7030;DHT22;3556;53.500;10.176;2023-05-24T08:09:01;13.10;99.90
7030;DHT22;3556;53.500;10.176;2023-05-24T08:11:28;13.10;99.90
7030;DHT22;3556;53.500;10.176;2023-05-24T08:13:54;13.10;99.90
7030;DHT22;3556;53.500;10.176;2023-05-24T08:16:19;13.10;99.90
7030;DHT22;3556;53.500;10.176;2023-05-24T08:18:45;13.10;99.90
7030;DHT22;3556;53.500;10.176;2023-05-24T08:21:11;13.10;99.90
7030;DHT22;3556;53.500;10.176;2023-05-24T08:23:36;13.10;99.90
7030;DHT22;3556;53.500;10.176;2023-05-24T08:26:02;13.10;99.90
7030;DHT22;3556;53.500;10.176;2023-05-24T08:28:28;13.10;99.90
7030;DHT22;3556;53.500;10.176;2023-05-24T08:30:54;13.10;99.90
7030;DHT22;3556;53.500;10.176;2023-05-24T08:33:20;13.10;99.90
7030;DHT22;3556;53.500;10.176;2023-05-24T08:35:50;13.10;99.90
7030;DHT22;3556;53.500;10.176;2023-05-24T08:38:16;13.20;99.90
7030;DHT22;3556;53.500;10.176;2023-05-24T08:40:42;13.20;99.90
7030;DHT22;3556;53.500;10.176;2023-05-24T08:43:08;13.20;99.90
7030;DHT22;3556;53.500;10.176;2023-05-24T08:45:37;13.20;99.90
7030;DHT22;3556;53.500;10.176;2023-05-24T08:48:04;13.20;99.90
7030;DHT22;3556;53.500;10.176;2023-05-24T08:50:32;13.20;99.90
7030;DHT22;3556;53.500;10.176;2023-05-24T08:52:59;13.30;99.90
7030;DHT22;3556;53.500;10.176;2023-05-24T08:55:28;13.30;99.90
7030;DHT22;3556;53.500;10.176;2023-05-24T08:57:54;13.30;99.90
7030;DHT22;3556;53.500;10.176;2023-05-24T09:00:21;13.30;99.90
7030;DHT22;3556;53.500;10.176;2023-05-24T09:02:48;13.30;99.90
7030;DHT22;3556;53.500;10.176;2023-05-24T09:05:15;13.20;99.90
7030;DHT22;3556;53.500;10.176;2023-05-24T09:07:42;13.20;99.90
7030;DHT22;3556;53.500;10.176;2023-05-24T09:10:09;13.20;99.90
7030;DHT22;3556;53.500;10.176;2023-05-24T09:12:39;13.30;99.90
7030;DHT22;3556;53.500;10.176;2023-05-24T09:15:06;13.30;99.90
7030;DHT22;3556;53.500;10.176;2023-05-24T09:17:36;13.40;99.90
7030;DHT22;3556;53.500;10.176;2023-05-24T09:20:06;13.50;99.90
7030;DHT22;3556;53.500;10.176;2023-05-24T09:22:35;13.50;99.90
7030;DHT22;3556;53.500;10.176;2023-05-24T09:25:05;13.60;99.90
7030;DHT22;3556;53.500;10.176;2023-05-24T09:27:33;13.60;99.90
7030;DHT22;3556;53.500;10.176;2023-05-24T09:29:59;13.60;99.90
7030;DHT22;3556;53.500;10.176;2023-05-24T09:32:26;13.60;99.90
7030;DHT22;3556;53.500;10.176;2023-05-24T09:34:54;13.70;99.90
7030;DHT22;3556;53.500;10.176;2023-05-24T09:37:21;13.70;99.90
7030;DHT22;3556;53.500;10.176;2023-05-24T09:39:49;13.70;99.90
7030;DHT22;3556;53.500;10.176;2023-05-24T09:42:19;13.70;99.90
7030;DHT22;3556;53.500;10.176;2023-05-24T09:44:58;13.80;99.90
7030;DHT22;3556;53.500;10.176;2023-05-24T09:47:31;13.80;99.90
7030;DHT22;3556;53.500;10.176;2023-05-24T09:49:58;13.80;99.90
7030;DHT22;3556;53.500;10.176;2023-05-24T09:52:24;13.80;99.90
7030;DHT22;3556;53.500;10.176;2023-05-24T09:54:50;13.90;99.90
7030;DHT22;3556;53.500;10.176;2023-05-24T09:57:16;14.00;99.90
7030;DHT22;3556;53.500;10.176;2023-05-24T09:59:42;14.10;99.90
7030;DHT22;3556;53.500;10.176;2023-05-24T10:02:09;14.10;99.90
7030;DHT22;3556;53.500;10.176;2023-05-24T10:04:36;14.00;99.90
7030;DHT22;3556;53.500;10.176;2023-05-24T10:07:03;14.10;99.90
7030;DHT22;3556;53.500;10.176;2023-05-24T10:09:29;14.10;99.90
7030;DHT22;3556;53.500;10.176;2023-05-24T10:12:04;14.20;99.90
7030;DHT22;3556;53.500;10.176;2023-05-24T10:14:37;14.30;99.90
7030;DHT22;3556;53.500;10.176;2023-05-24T10:17:04;14.40;99.90
7030;DHT22;3556;53.500;10.176;2023-05-24T10:19:31;14.50;99.90
7030;DHT22;3556;53.500;10.176;2023-05-24T10:21:58;14.50;99.90
7030;DHT22;3556;53.500;10.176;2023-05-24T10:24:27;14.50;99.90
7030;DHT22;3556;53.500;10.176;2023-05-24T10:26:55;14.40;99.90
7030;DHT22;3556;53.500;10.176;2023-05-24T10:29:45;14.40;99.90
7030;DHT22;3556;53.500;10.176;2023-05-24T10:32:15;14.50;99.90
7030;DHT22;3556;53.500;10.176;2023-05-24T10:34:41;14.60;99.90
7030;DHT22;3556;53.500;10.176;2023-05-24T10:37:08;14.60;99.90
7030;DHT22;3556;53.500;10.176;2023-05-24T10:39:34;14.70;99.90
7030;DHT22;3556;53.500;10.176;2023-05-24T10:42:04;14.70;99.90
7030;DHT22;3556;53.500;10.176;2023-05-24T10:44:30;14.80;99.90
7030;DHT22;3556;53.500;10.176;2023-05-24T10:47:08;14.90;99.90
7030;DHT22;3556;53.500;10.176;2023-05-24T10:49:35;15.00;99.90
7030;DHT22;3556;53.500;10.176;2023-05-24T10:52:06;15.20;99.90
7030;DHT22;3556;53.500;10.176;2023-05-24T10:54:32;15.20;99.90
7030;DHT22;3556;53.500;10.176;2023-05-24T10:57:00;15.30;99.90
7030;DHT22;3556;53.500;10.176;2023-05-24T10:59:34;15.40;99.90
7030;DHT22;3556;53.500;10.176;2023-05-24T11:02:08;15.50;99.90
7030;DHT22;3556;53.500;10.176;2023-05-24T11:04:39;15.50;99.90
7030;DHT22;3556;53.500;10.176;2023-05-24T11:07:07;15.50;99.90
7030;DHT22;3556;53.500;10.176;2023-05-24T11:09:38;15.70;99.90
7030;DHT22;3556;53.500;10.176;2023-05-24T11:12:16;15.70;99.90
7030;DHT22;3556;53.500;10.176;2023-05-24T11:14:47;15.90;99.90
7030;DHT22;3556;53.500;10.176;2023-05-24T11:17:13;16.00;99.90
7030;DHT22;3556;53.500;10.176;2023-05-24T11:19:54;16.20;99.90
7030;DHT22;3556;53.500;10.176;2023-05-24T11:22:21;16.40;99.90
7030;DHT22;3556;53.500;10.176;2023-05-24T11:24:47;16.60;99.90
7030;DHT22;3556;53.500;10.176;2023-05-24T11:27:13;16.70;99.90
7030;DHT22;3556;53.500;10.176;2023-05-24T11:29:46;16.70;99.90
7030;DHT22;3556;53.500;10.176;2023-05-24T11:32:20;16.70;99.90
7030;DHT22;3556;53.500;10.176;2023-05-24T11:34:46;16.60;99.90
7030;DHT22;3556;53.500;10.176;2023-05-24T11:37:12;16.40;99.90
7030;DHT22;3556;53.500;10.176;2023-05-24T11:39:38;16.30;99.90
7030;DHT22;3556;53.500;10.176;2023-05-24T11:42:06;16.10;99.90
7030;DHT22;3556;53.500;10.176;2023-05-24T11:44:32;15.90;99.90
7030;DHT22;3556;53.500;10.176;2023-05-24T11:47:01;15.90;99.90
7030;DHT22;3556;53.500;10.176;2023-05-24T11:49:27;16.00;99.90
7030;DHT22;3556;53.500;10.176;2023-05-24T11:51:54;16.10;99.90
7030;DHT22;3556;53.500;10.176;2023-05-24T11:54:22;16.20;99.90
7030;DHT22;3556;53.500;10.176;2023-05-24T11:56:47;16.30;99.90
7030;DHT22;3556;53.500;10.176;2023-05-24T11:59:21;16.30;99.90
7030;DHT22;3556;53.500;10.176;2023-05-24T12:01:47;16.40;99.90
7030;DHT22;3556;53.500;10.176;2023-05-24T12:04:12;16.30;99.90
7030;DHT22;3556;53.500;10.176;2023-05-24T12:06:42;16.20;99.90
7030;DHT22;3556;53.500;10.176;2023-05-24T12:09:10;16.10;99.90
7030;DHT22;3556;53.500;10.176;2023-05-24T12:11:39;15.90;99.90
7030;DHT22;3556;53.500;10.176;2023-05-24T12:14:13;15.60;99.90
7030;DHT22;3556;53.500;10.176;2023-05-24T12:16:39;15.40;99.90
7030;DHT22;3556;53.500;10.176;2023-05-24T12:19:04;15.40;99.90
7030;DHT22;3556;53.500;10.176;2023-05-24T12:21:31;15.40;99.90
7030;DHT22;3556;53.500;10.176;2023-05-24T12:24:07;15.50;99.90
7030;DHT22;3556;53.500;10.176;2023-05-24T12:26:40;15.60;99.90
7030;DHT22;3556;53.500;10.176;2023-05-24T12:29:06;15.70;99.90
7030;DHT22;3556;53.500;10.176;2023-05-24T12:31:32;15.80;99.90
7030;DHT22;3556;53.500;10.176;2023-05-24T12:33:58;15.90;99.90
7030;DHT22;3556;53.500;10.176;2023-05-24T12:36:24;16.00;99.90
7030;DHT22;3556;53.500;10.176;2023-05-24T12:38:49;16.10;99.90
7030;DHT22;3556;53.500;10.176;2023-05-24T12:41:15;16.20;99.90
7030;DHT22;3556;53.500;10.176;2023-05-24T12:43:41;16.40;99.90
7030;DHT22;3556;53.500;10.176;2023-05-24T12:46:08;16.50;99.90
7030;DHT22;3556;53.500;10.176;2023-05-24T12:48:34;16.50;99.90
7030;DHT22;3556;53.500;10.176;2023-05-24T12:51:00;16.60;99.90
7030;DHT22;3556;53.500;10.176;2023-05-24T12:53:26;16.70;99.90
7030;DHT22;3556;53.500;10.176;2023-05-24T12:55:52;16.80;99.90
7030;DHT22;3556;53.500;10.176;2023-05-24T12:58:20;16.80;99.90
7030;DHT22;3556;53.500;10.176;2023-05-24T13:00:46;16.80;99.90
7030;DHT22;3556;53.500;10.176;2023-05-24T13:03:14;16.70;99.90
7030;DHT22;3556;53.500;10.176;2023-05-24T13:05:40;16.70;99.90
7030;DHT22;3556;53.500;10.176;2023-05-24T13:08:06;16.60;99.90
7030;DHT22;3556;53.500;10.176;2023-05-24T13:10:31;16.70;99.90
7030;DHT22;3556;53.500;10.176;2023-05-24T13:12:57;16.80;99.90
7030;DHT22;3556;53.500;10.176;2023-05-24T13:15:22;16.90;99.90
7030;DHT22;3556;53.500;10.176;2023-05-24T13:17:48;17.10;99.90
7030;DHT22;3556;53.500;10.176;2023-05-24T13:20:14;17.30;99.90
7030;DHT22;3556;53.500;10.176;2023-05-24T13:22:40;17.50;99.90
7030;DHT22;3556;53.500;10.176;2023-05-24T13:25:07;17.60;99.90
7030;DHT22;3556;53.500;10.176;2023-05-24T13:27:34;17.80;99.90
7030;DHT22;3556;53.500;10.176;2023-05-24T13:30:00;17.90;99.90
7030;DHT22;3556;53.500;10.176;2023-05-24T13:32:25;17.80;99.90
7030;DHT22;3556;53.500;10.176;2023-05-24T13:34:51;17.70;99.90
7030;DHT22;3556;53.500;10.176;2023-05-24T13:37:17;17.60;99.90
7030;DHT22;3556;53.500;10.176;2023-05-24T13:39:43;17.60;99.90
7030;DHT22;3556;53.500;10.176;2023-05-24T13:42:09;17.60;99.90
7030;DHT22;3556;53.500;10.176;2023-05-24T13:44:35;17.50;99.90
7030;DHT22;3556;53.500;10.176;2023-05-24T13:47:02;17.40;99.90
7030;DHT22;3556;53.500;10.176;2023-05-24T13:49:28;17.40;99.90
7030;DHT22;3556;53.500;10.176;2023-05-24T13:51:54;17.30;99.90
7030;DHT22;3556;53.500;10.176;2023-05-24T13:54:20;17.20;99.90
7030;DHT22;3556;53.500;10.176;2023-05-24T13:56:47;17.10;99.90
7030;DHT22;3556;53.500;10.176;2023-05-24T13:59:14;17.10;99.90
7030;DHT22;3556;53.500;10.176;2023-05-24T14:01:41;17.10;99.90
7030;DHT22;3556;53.500;10.176;2023-05-24T14:04:07;17.10;99.90
7030;DHT22;3556;53.500;10.176;2023-05-24T14:06:33;17.20;99.90
7030;DHT22;3556;53.500;10.176;2023-05-24T14:09:02;17.30;99.90
7030;DHT22;3556;53.500;10.176;2023-05-24T14:11:28;17.40;99.90
7030;DHT22;3556;53.500;10.176;2023-05-24T14:13:56;17.50;99.90
7030;DHT22;3556;53.500;10.176;2023-05-24T14:16:21;17.50;99.90
7030;DHT22;3556;53.500;10.176;2023-05-24T14:18:47;17.60;99.90
7030;DHT22;3556;53.500;10.176;2023-05-24T14:21:14;17.50;99.90
7030;DHT22;3556;53.500;10.176;2023-05-24T14:23:40;17.50;99.90
7030;DHT22;3556;53.500;10.176;2023-05-24T14:26:06;17.60;99.90
7030;DHT22;3556;53.500;10.176;2023-05-24T14:28:32;17.80;99.90
7030;DHT22;3556;53.500;10.176;2023-05-24T14:30:57;17.90;99.90
7030;DHT22;3556;53.500;10.176;2023-05-24T14:33:23;18.00;99.90
7030;DHT22;3556;53.500;10.176;2023-05-24T14:35:49;18.10;99.90
7030;DHT22;3556;53.500;10.176;2023-05-24T14:38:15;18.10;99.90
7030;DHT22;3556;53.500;10.176;2023-05-24T14:40:42;18.20;99.90
7030;DHT22;3556;53.500;10.176;2023-05-24T14:43:11;18.10;99.90
7030;DHT22;3556;53.500;10.176;2023-05-24T14:45:38;17.80;99.90
7030;DHT22;3556;53.500;10.176;2023-05-24T14:48:05;17.50;99.90
7030;DHT22;3556;53.500;10.176;2023-05-24T14:50:31;17.40;99.90
7030;DHT22;3556;53.500;10.176;2023-05-24T14:52:57;17.20;99.90
7030;DHT22;3556;53.500;10.176;2023-05-24T14:55:22;17.10;99.90
7030;DHT22;3556;53.500;10.176;2023-05-24T14:57:48;17.10;99.90
7030;DHT22;3556;53.500;10.176;2023-05-24T15:00:14;17.00;99.90
7030;DHT22;3556;53.500;10.176;2023-05-24T15:02:40;17.00;99.90
7030;DHT22;3556;53.500;10.176;2023-05-24T15:05:06;17.10;99.90
7030;DHT22;3556;53.500;10.176;2023-05-24T15:07:32;17.10;99.90
7030;DHT22;3556;53.500;10.176;2023-05-24T15:09:58;17.10;99.90
7030;DHT22;3556;53.500;10.176;2023-05-24T15:12:23;17.20;99.90
7030;DHT22;3556;53.500;10.176;2023-05-24T15:14:49;17.30;99.90
7030;DHT22;3556;53.500;10.176;2023-05-24T15:17:14;17.50;99.90
7030;DHT22;3556;53.500;10.176;2023-05-24T15:19:40;17.70;99.90
7030;DHT22;3556;53.500;10.176;2023-05-24T15:22:06;17.80;99.90
7030;DHT22;3556;53.500;10.176;2023-05-24T15:24:32;18.00;99.90
7030;DHT22;3556;53.500;10.176;2023-05-24T15:26:58;18.00;99.90
7030;DHT22;3556;53.500;10.176;2023-05-24T15:29:23;17.80;99.90
7030;DHT22;3556;53.500;10.176;2023-05-24T15:31:49;17.70;99.90
7030;DHT22;3556;53.500;10.176;2023-05-24T15:34:15;17.60;99.90
7030;DHT22;3556;53.500;10.176;2023-05-24T15:36:41;17.50;99.90
7030;DHT22;3556;53.500;10.176;2023-05-24T15:39:06;17.50;99.90
7030;DHT22;3556;53.500;10.176;2023-05-24T15:41:32;17.30;99.90
7030;DHT22;3556;53.500;10.176;2023-05-24T15:43:58;17.20;99.90
7030;DHT22;3556;53.500;10.176;2023-05-24T15:46:26;17.10;99.90
7030;DHT22;3556;53.500;10.176;2023-05-24T15:48:52;17.00;99.90
7030;DHT22;3556;53.500;10.176;2023-05-24T15:51:18;17.00;99.90
7030;DHT22;3556;53.500;10.176;2023-05-24T15:53:44;17.00;99.90
7030;DHT22;3556;53.500;10.176;2023-05-24T15:56:09;16.80;99.90
7030;DHT22;3556;53.500;10.176;2023-05-24T15:58:35;16.70;99.90
7030;DHT22;3556;53.500;10.176;2023-05-24T16:01:01;16.70;99.90
7030;DHT22;3556;53.500;10.176;2023-05-24T16:03:27;16.70;99.90
7030;DHT22;3556;53.500;10.176;2023-05-24T16:05:52;16.80;99.90
7030;DHT22;3556;53.500;10.176;2023-05-24T16:08:18;16.80;99.90
7030;DHT22;3556;53.500;10.176;2023-05-24T16:10:44;16.70;99.90
7030;DHT22;3556;53.500;10.176;2023-05-24T16:13:10;16.70;99.90
7030;DHT22;3556;53.500;10.176;2023-05-24T16:15:36;16.80;99.90
7030;DHT22;3556;53.500;10.176;2023-05-24T16:18:05;16.70;99.90
7030;DHT22;3556;53.500;10.176;2023-05-24T16:20:32;16.60;99.90
7030;DHT22;3556;53.500;10.176;2023-05-24T16:22:57;16.50;99.90
7030;DHT22;3556;53.500;10.176;2023-05-24T16:25:23;16.40;99.90
7030;DHT22;3556;53.500;10.176;2023-05-24T16:27:50;16.40;99.90
7030;DHT22;3556;53.500;10.176;2023-05-24T16:30:16;16.40;99.90
7030;DHT22;3556;53.500;10.176;2023-05-24T16:32:41;16.40;99.90
7030;DHT22;3556;53.500;10.176;2023-05-24T16:35:09;16.40;99.90
7030;DHT22;3556;53.500;10.176;2023-05-24T16:37:35;16.50;99.90
7030;DHT22;3556;53.500;10.176;2023-05-24T16:40:01;16.60;99.90
7030;DHT22;3556;53.500;10.176;2023-05-24T16:42:27;16.70;99.90
7030;DHT22;3556;53.500;10.176;2023-05-24T16:44:52;16.70;99.90
7030;DHT22;3556;53.500;10.176;2023-05-24T16:47:18;16.80;99.90
7030;DHT22;3556;53.500;10.176;2023-05-24T16:49:43;16.80;99.90
7030;DHT22;3556;53.500;10.176;2023-05-24T16:52:09;16.70;99.90
7030;DHT22;3556;53.500;10.176;2023-05-24T16:54:35;16.70;99.90
7030;DHT22;3556;53.500;10.176;2023-05-24T16:57:00;16.60;99.90
7030;DHT22;3556;53.500;10.176;2023-05-24T16:59:26;16.50;99.90
7030;DHT22;3556;53.500;10.176;2023-05-24T17:01:52;16.50;99.90
7030;DHT22;3556;53.500;10.176;2023-05-24T17:04:18;16.50;99.90
7030;DHT22;3556;53.500;10.176;2023-05-24T17:06:43;16.40;99.90
7030;DHT22;3556;53.500;10.176;2023-05-24T17:09:09;16.30;99.90
7030;DHT22;3556;53.500;10.176;2023-05-24T17:11:35;16.30;99.90
7030;DHT22;3556;53.500;10.176;2023-05-24T17:14:01;16.10;99.90
7030;DHT22;3556;53.500;10.176;2023-05-24T17:16:27;16.10;99.90
7030;DHT22;3556;53.500;10.176;2023-05-24T17:18:54;16.00;99.90
7030;DHT22;3556;53.500;10.176;2023-05-24T17:21:22;16.00;99.90
7030;DHT22;3556;53.500;10.176;2023-05-24T17:23:52;16.00;99.90
7030;DHT22;3556;53.500;10.176;2023-05-24T17:26:18;15.90;99.90
7030;DHT22;3556;53.500;10.176;2023-05-24T17:28:44;15.90;99.90
7030;DHT22;3556;53.500;10.176;2023-05-24T17:31:12;15.90;99.90
7030;DHT22;3556;53.500;10.176;2023-05-24T17:33:39;15.90;99.90